sensor_id;sensor_type;location;lat;lon;timestamp;temperature;humidity
59148;DHT22;44930;52.878;6.168;2022-10-14T00:03:58;11.10;99.90
59148;DHT22;44930;52.878;6.168;2022-10-14T00:06:27;11.10;99.90
59148;DHT22;44930;52.878;6.168;2022-10-14T00:08:54;11.00;99.90
59148;DHT22;44930;52.878;6.168;2022-10-14T00:11:23;11.00;99.90
59148;DHT22;44930;52.878;6.168;2022-10-14T00:13:52;10.90;99.90
59148;DHT22;44930;52.878;6.168;2022-10-14T00:18:48;10.90;99.90
59148;DHT22;44930;52.878;6.168;2022-10-14T00:21:15;11.00;99.90
59148;DHT22;44930;52.878;6.168;2022-10-14T00:28:39;10.90;99.90
59148;DHT22;44930;52.878;6.168;2022-10-14T00:33:31;10.90;99.90
59148;DHT22;44930;52.878;6.168;2022-10-14T00:36:02;10.80;99.90
59148;DHT22;44930;52.878;6.168;2022-10-14T00:38:28;10.80;99.90
59148;DHT22;44930;52.878;6.168;2022-10-14T00:40:54;10.70;99.90
59148;DHT22;44930;52.878;6.168;2022-10-14T00:43:21;10.70;99.90
59148;DHT22;44930;52.878;6.168;2022-10-14T00:45:47;10.70;99.90
59148;DHT22;44930;52.878;6.168;2022-10-14T00:50:42;10.60;99.90
59148;DHT22;44930;52.878;6.168;2022-10-14T00:53:10;10.70;99.90
59148;DHT22;44930;52.878;6.168;2022-10-14T00:55:37;10.80;99.90
59148;DHT22;44930;52.878;6.168;2022-10-14T00:58:04;10.90;99.90
59148;DHT22;44930;52.878;6.168;2022-10-14T01:00:30;10.80;99.90
59148;DHT22;44930;52.878;6.168;2022-10-14T01:02:55;10.70;99.90
59148;DHT22;44930;52.878;6.168;2022-10-14T01:05:21;10.90;99.90
59148;DHT22;44930;52.878;6.168;2022-10-14T01:11:12;10.40;99.90
59148;DHT22;44930;52.878;6.168;2022-10-14T01:16:55;10.70;99.90
59148;DHT22;44930;52.878;6.168;2022-10-14T01:22:19;10.80;99.90
59148;DHT22;44930;52.878;6.168;2022-10-14T01:30:47;10.40;99.90
59148;DHT22;44930;52.878;6.168;2022-10-14T01:33:19;10.80;99.90
59148;DHT22;44930;52.878;6.168;2022-10-14T01:36:03;10.60;99.90
59148;DHT22;44930;52.878;6.168;2022-10-14T01:38:36;10.70;99.90
59148;DHT22;44930;52.878;6.168;2022-10-14T01:41:26;11.30;99.90
59148;DHT22;44930;52.878;6.168;2022-10-14T01:43:54;11.10;99.90
59148;DHT22;44930;52.878;6.168;2022-10-14T01:49:03;11.10;99.90
59148;DHT22;44930;52.878;6.168;2022-10-14T01:51:38;10.80;99.90
59148;DHT22;44930;52.878;6.168;2022-10-14T01:54:08;10.50;99.90
59148;DHT22;44930;52.878;6.168;2022-10-14T01:56:36;10.70;99.90
59148;DHT22;44930;52.878;6.168;2022-10-14T01:59:02;10.60;99.90
59148;DHT22;44930;52.878;6.168;2022-10-14T02:01:28;10.90;99.90
59148;DHT22;44930;52.878;6.168;2022-10-14T02:03:54;10.80;99.90
59148;DHT22;44930;52.878;6.168;2022-10-14T02:09:15;10.90;99.90
59148;DHT22;44930;52.878;6.168;2022-10-14T02:17:32;10.80;99.90
59148;DHT22;44930;52.878;6.168;2022-10-14T02:20:06;10.80;99.90
59148;DHT22;44930;52.878;6.168;2022-10-14T02:22:36;10.80;99.90
59148;DHT22;44930;52.878;6.168;2022-10-14T02:25:12;10.70;99.90
59148;DHT22;44930;52.878;6.168;2022-10-14T02:27:42;10.90;99.90
59148;DHT22;44930;52.878;6.168;2022-10-14T02:30:08;10.60;99.90
59148;DHT22;44930;52.878;6.168;2022-10-14T02:32:35;10.60;99.90
59148;DHT22;44930;52.878;6.168;2022-10-14T02:35:03;10.70;99.90
59148;DHT22;44930;52.878;6.168;2022-10-14T02:37:30;10.60;99.90
59148;DHT22;44930;52.878;6.168;2022-10-14T02:40:02;10.50;99.90
59148;DHT22;44930;52.878;6.168;2022-10-14T02:42:29;10.60;99.90
59148;DHT22;44930;52.878;6.168;2022-10-14T02:47:22;10.80;99.90
59148;DHT22;44930;52.878;6.168;2022-10-14T02:49:48;10.70;99.90
59148;DHT22;44930;52.878;6.168;2022-10-14T02:54:40;10.70;99.90
59148;DHT22;44930;52.878;6.168;2022-10-14T02:57:06;10.70;99.90
59148;DHT22;44930;52.878;6.168;2022-10-14T02:59:31;10.60;99.90
59148;DHT22;44930;52.878;6.168;2022-10-14T03:01:57;10.70;99.90
59148;DHT22;44930;52.878;6.168;2022-10-14T03:04:22;10.60;99.90
59148;DHT22;44930;52.878;6.168;2022-10-14T03:06:48;10.70;99.90
59148;DHT22;44930;52.878;6.168;2022-10-14T03:09:13;10.40;99.90
59148;DHT22;44930;52.878;6.168;2022-10-14T03:11:39;10.60;99.90
59148;DHT22;44930;52.878;6.168;2022-10-14T03:14:04;10.40;99.90
59148;DHT22;44930;52.878;6.168;2022-10-14T03:16:31;10.50;99.90
59148;DHT22;44930;52.878;6.168;2022-10-14T03:18:56;10.50;99.90
59148;DHT22;44930;52.878;6.168;2022-10-14T03:21:22;10.50;99.90
59148;DHT22;44930;52.878;6.168;2022-10-14T03:23:47;10.80;99.90
59148;DHT22;44930;52.878;6.168;2022-10-14T03:26:13;10.50;99.90
59148;DHT22;44930;52.878;6.168;2022-10-14T03:28:38;10.50;99.90
59148;DHT22;44930;52.878;6.168;2022-10-14T03:31:04;10.50;99.90
59148;DHT22;44930;52.878;6.168;2022-10-14T03:33:30;10.40;99.90
59148;DHT22;44930;52.878;6.168;2022-10-14T03:35:55;10.50;99.90
59148;DHT22;44930;52.878;6.168;2022-10-14T03:38:21;10.60;99.90
59148;DHT22;44930;52.878;6.168;2022-10-14T03:40:46;10.40;99.90
59148;DHT22;44930;52.878;6.168;2022-10-14T03:43:12;10.50;99.90
59148;DHT22;44930;52.878;6.168;2022-10-14T03:45:37;10.50;99.90
59148;DHT22;44930;52.878;6.168;2022-10-14T03:50:29;10.40;99.90
59148;DHT22;44930;52.878;6.168;2022-10-14T03:52:55;10.30;99.90
59148;DHT22;44930;52.878;6.168;2022-10-14T03:57:46;10.40;99.90
59148;DHT22;44930;52.878;6.168;2022-10-14T04:00:12;10.40;99.90
59148;DHT22;44930;52.878;6.168;2022-10-14T04:02:38;10.60;99.90
59148;DHT22;44930;52.878;6.168;2022-10-14T04:05:04;10.30;99.90
59148;DHT22;44930;52.878;6.168;2022-10-14T04:07:29;10.20;99.90
59148;DHT22;44930;52.878;6.168;2022-10-14T04:09:55;10.40;99.90
59148;DHT22;44930;52.878;6.168;2022-10-14T04:14:47;10.40;99.90
59148;DHT22;44930;52.878;6.168;2022-10-14T04:19:39;10.30;99.90
59148;DHT22;44930;52.878;6.168;2022-10-14T04:22:04;10.30;99.90
59148;DHT22;44930;52.878;6.168;2022-10-14T04:24:30;10.20;99.90
59148;DHT22;44930;52.878;6.168;2022-10-14T04:26:56;10.30;99.90
59148;DHT22;44930;52.878;6.168;2022-10-14T04:29:22;10.20;99.90
59148;DHT22;44930;52.878;6.168;2022-10-14T04:31:47;10.30;99.90
59148;DHT22;44930;52.878;6.168;2022-10-14T04:34:13;10.40;99.90
59148;DHT22;44930;52.878;6.168;2022-10-14T04:36:39;10.30;99.90
59148;DHT22;44930;52.878;6.168;2022-10-14T04:39:05;10.30;99.90
59148;DHT22;44930;52.878;6.168;2022-10-14T04:41:31;10.30;99.90
59148;DHT22;44930;52.878;6.168;2022-10-14T04:43:56;10.30;99.90
59148;DHT22;44930;52.878;6.168;2022-10-14T04:46:22;10.20;99.90
59148;DHT22;44930;52.878;6.168;2022-10-14T04:48:48;10.20;99.90
59148;DHT22;44930;52.878;6.168;2022-10-14T04:53:39;10.20;99.90
59148;DHT22;44930;52.878;6.168;2022-10-14T04:56:05;10.20;99.90
59148;DHT22;44930;52.878;6.168;2022-10-14T04:58:31;10.30;99.90
59148;DHT22;44930;52.878;6.168;2022-10-14T05:00:56;10.30;99.90
59148;DHT22;44930;52.878;6.168;2022-10-14T05:03:22;10.20;99.90
59148;DHT22;44930;52.878;6.168;2022-10-14T05:05:49;10.20;99.90
59148;DHT22;44930;52.878;6.168;2022-10-14T05:08:15;10.30;99.90
59148;DHT22;44930;52.878;6.168;2022-10-14T05:10:40;10.30;99.90
59148;DHT22;44930;52.878;6.168;2022-10-14T05:13:06;10.30;99.90
59148;DHT22;44930;52.878;6.168;2022-10-14T05:15:33;10.30;99.90
59148;DHT22;44930;52.878;6.168;2022-10-14T05:17:58;10.30;99.90
59148;DHT22;44930;52.878;6.168;2022-10-14T05:20:24;10.40;99.90
59148;DHT22;44930;52.878;6.168;2022-10-14T05:22:50;10.30;99.90
59148;DHT22;44930;52.878;6.168;2022-10-14T05:25:15;10.30;99.90
59148;DHT22;44930;52.878;6.168;2022-10-14T05:27:41;10.40;99.90
59148;DHT22;44930;52.878;6.168;2022-10-14T05:30:07;10.30;99.90
59148;DHT22;44930;52.878;6.168;2022-10-14T05:32:33;10.30;99.90
59148;DHT22;44930;52.878;6.168;2022-10-14T05:34:58;10.40;99.90
59148;DHT22;44930;52.878;6.168;2022-10-14T05:37:24;10.40;99.90
59148;DHT22;44930;52.878;6.168;2022-10-14T05:39:49;10.30;99.90
59148;DHT22;44930;52.878;6.168;2022-10-14T05:42:15;10.40;99.90
59148;DHT22;44930;52.878;6.168;2022-10-14T05:44:40;10.30;99.90
59148;DHT22;44930;52.878;6.168;2022-10-14T05:47:09;10.30;99.90
59148;DHT22;44930;52.878;6.168;2022-10-14T05:49:35;10.30;99.90
59148;DHT22;44930;52.878;6.168;2022-10-14T05:52:00;10.60;99.90
59148;DHT22;44930;52.878;6.168;2022-10-14T05:54:26;10.40;99.90
59148;DHT22;44930;52.878;6.168;2022-10-14T05:56:51;10.30;99.90
59148;DHT22;44930;52.878;6.168;2022-10-14T05:59:17;10.30;99.90
59148;DHT22;44930;52.878;6.168;2022-10-14T06:01:43;10.40;99.90
59148;DHT22;44930;52.878;6.168;2022-10-14T06:04:16;10.40;99.90
59148;DHT22;44930;52.878;6.168;2022-10-14T06:06:42;10.30;99.90
59148;DHT22;44930;52.878;6.168;2022-10-14T06:09:07;10.30;99.90
59148;DHT22;44930;52.878;6.168;2022-10-14T06:11:33;10.30;99.90
59148;DHT22;44930;52.878;6.168;2022-10-14T06:13:58;10.30;99.90
59148;DHT22;44930;52.878;6.168;2022-10-14T06:16:24;10.30;99.90
59148;DHT22;44930;52.878;6.168;2022-10-14T06:18:49;10.30;99.90
59148;DHT22;44930;52.878;6.168;2022-10-14T06:21:15;10.40;99.90
59148;DHT22;44930;52.878;6.168;2022-10-14T06:23:40;10.30;99.90
59148;DHT22;44930;52.878;6.168;2022-10-14T06:26:06;10.30;99.90
59148;DHT22;44930;52.878;6.168;2022-10-14T06:28:34;10.30;99.90
59148;DHT22;44930;52.878;6.168;2022-10-14T06:31:00;10.40;99.90
59148;DHT22;44930;52.878;6.168;2022-10-14T06:33:28;10.70;99.90
59148;DHT22;44930;52.878;6.168;2022-10-14T06:35:54;10.40;99.90
59148;DHT22;44930;52.878;6.168;2022-10-14T06:38:20;10.40;99.90
59148;DHT22;44930;52.878;6.168;2022-10-14T06:40:52;10.50;99.90
59148;DHT22;44930;52.878;6.168;2022-10-14T06:43:18;10.50;99.90
59148;DHT22;44930;52.878;6.168;2022-10-14T06:45:43;10.60;99.90
59148;DHT22;44930;52.878;6.168;2022-10-14T06:48:09;10.60;99.90
59148;DHT22;44930;52.878;6.168;2022-10-14T06:50:35;10.50;99.90
59148;DHT22;44930;52.878;6.168;2022-10-14T06:53:01;10.50;99.90
59148;DHT22;44930;52.878;6.168;2022-10-14T06:55:27;10.60;99.90
59148;DHT22;44930;52.878;6.168;2022-10-14T06:57:53;10.50;99.90
59148;DHT22;44930;52.878;6.168;2022-10-14T07:00:19;10.60;99.90
59148;DHT22;44930;52.878;6.168;2022-10-14T07:02:45;10.60;99.90
59148;DHT22;44930;52.878;6.168;2022-10-14T07:07:36;10.60;99.90
59148;DHT22;44930;52.878;6.168;2022-10-14T07:10:02;10.70;99.90
59148;DHT22;44930;52.878;6.168;2022-10-14T07:12:28;10.60;99.90
59148;DHT22;44930;52.878;6.168;2022-10-14T07:19:46;10.70;99.90
59148;DHT22;44930;52.878;6.168;2022-10-14T07:22:11;10.80;99.90
59148;DHT22;44930;52.878;6.168;2022-10-14T07:27:03;10.60;99.90
59148;DHT22;44930;52.878;6.168;2022-10-14T07:29:29;10.80;99.90
59148;DHT22;44930;52.878;6.168;2022-10-14T07:31:55;10.90;99.90
59148;DHT22;44930;52.878;6.168;2022-10-14T07:34:20;10.90;99.90
59148;DHT22;44930;52.878;6.168;2022-10-14T07:36:46;10.90;99.90
59148;DHT22;44930;52.878;6.168;2022-10-14T07:39:12;10.90;99.90
59148;DHT22;44930;52.878;6.168;2022-10-14T07:41:38;11.00;99.90
59148;DHT22;44930;52.878;6.168;2022-10-14T07:44:05;11.00;99.90
59148;DHT22;44930;52.878;6.168;2022-10-14T07:46:35;10.90;99.90
59148;DHT22;44930;52.878;6.168;2022-10-14T07:49:15;10.90;99.90
59148;DHT22;44930;52.878;6.168;2022-10-14T07:51:42;10.80;99.90
59148;DHT22;44930;52.878;6.168;2022-10-14T07:56:38;11.10;99.90
59148;DHT22;44930;52.878;6.168;2022-10-14T07:59:04;11.20;99.90
59148;DHT22;44930;52.878;6.168;2022-10-14T08:03:55;11.00;99.90
59148;DHT22;44930;52.878;6.168;2022-10-14T08:06:21;11.20;99.90
59148;DHT22;44930;52.878;6.168;2022-10-14T08:08:47;11.20;99.90
59148;DHT22;44930;52.878;6.168;2022-10-14T08:11:19;11.20;99.90
59148;DHT22;44930;52.878;6.168;2022-10-14T08:13:45;11.20;99.90
59148;DHT22;44930;52.878;6.168;2022-10-14T08:16:21;11.30;99.90
59148;DHT22;44930;52.878;6.168;2022-10-14T08:18:48;11.20;99.90
59148;DHT22;44930;52.878;6.168;2022-10-14T08:21:14;11.30;99.90
59148;DHT22;44930;52.878;6.168;2022-10-14T08:23:40;11.20;99.90
59148;DHT22;44930;52.878;6.168;2022-10-14T08:28:49;11.50;99.90
59148;DHT22;44930;52.878;6.168;2022-10-14T08:31:15;11.40;99.90
59148;DHT22;44930;52.878;6.168;2022-10-14T08:33:41;11.40;99.90
59148;DHT22;44930;52.878;6.168;2022-10-14T08:36:08;11.40;99.90
59148;DHT22;44930;52.878;6.168;2022-10-14T08:38:34;11.40;99.90
59148;DHT22;44930;52.878;6.168;2022-10-14T08:43:49;11.50;99.90
59148;DHT22;44930;52.878;6.168;2022-10-14T08:46:41;11.40;99.90
59148;DHT22;44930;52.878;6.168;2022-10-14T08:49:28;11.50;99.90
59148;DHT22;44930;52.878;6.168;2022-10-14T08:52:19;11.50;99.90
59148;DHT22;44930;52.878;6.168;2022-10-14T08:54:51;11.60;99.90
59148;DHT22;44930;52.878;6.168;2022-10-14T08:57:22;11.50;99.90
59148;DHT22;44930;52.878;6.168;2022-10-14T08:59:50;11.90;99.90
59148;DHT22;44930;52.878;6.168;2022-10-14T09:05:01;11.70;99.90
59148;DHT22;44930;52.878;6.168;2022-10-14T09:07:28;11.70;99.90
59148;DHT22;44930;52.878;6.168;2022-10-14T09:10:04;11.60;99.90
59148;DHT22;44930;52.878;6.168;2022-10-14T09:12:32;11.80;99.90
59148;DHT22;44930;52.878;6.168;2022-10-14T09:23:20;11.80;99.90
59148;DHT22;44930;52.878;6.168;2022-10-14T09:25:58;12.00;99.90
59148;DHT22;44930;52.878;6.168;2022-10-14T09:28:31;11.90;99.90
59148;DHT22;44930;52.878;6.168;2022-10-14T09:31:00;11.90;99.90
59148;DHT22;44930;52.878;6.168;2022-10-14T09:33:26;12.00;99.90
59148;DHT22;44930;52.878;6.168;2022-10-14T09:35:52;12.00;99.90
59148;DHT22;44930;52.878;6.168;2022-10-14T09:38:18;11.90;99.90
59148;DHT22;44930;52.878;6.168;2022-10-14T09:40:48;11.90;99.90
59148;DHT22;44930;52.878;6.168;2022-10-14T09:43:20;11.90;99.90
59148;DHT22;44930;52.878;6.168;2022-10-14T09:50:48;12.00;99.90
59148;DHT22;44930;52.878;6.168;2022-10-14T09:53:22;12.30;99.90
59148;DHT22;44930;52.878;6.168;2022-10-14T09:56:01;11.50;99.90
59148;DHT22;44930;52.878;6.168;2022-10-14T10:00:59;12.10;99.90
59148;DHT22;44930;52.878;6.168;2022-10-14T10:03:32;12.00;99.90
59148;DHT22;44930;52.878;6.168;2022-10-14T10:06:12;12.00;99.90
59148;DHT22;44930;52.878;6.168;2022-10-14T10:13:54;12.10;99.90
59148;DHT22;44930;52.878;6.168;2022-10-14T10:16:24;12.10;99.90
59148;DHT22;44930;52.878;6.168;2022-10-14T10:18:52;12.10;99.90
59148;DHT22;44930;52.878;6.168;2022-10-14T10:21:25;12.10;99.90
59148;DHT22;44930;52.878;6.168;2022-10-14T10:24:17;12.10;99.90
59148;DHT22;44930;52.878;6.168;2022-10-14T10:26:43;12.30;99.90
59148;DHT22;44930;52.878;6.168;2022-10-14T10:29:25;12.40;99.90
59148;DHT22;44930;52.878;6.168;2022-10-14T10:32:16;12.50;99.90
59148;DHT22;44930;52.878;6.168;2022-10-14T10:37:30;12.00;99.90
59148;DHT22;44930;52.878;6.168;2022-10-14T10:45:39;12.50;99.90
59148;DHT22;44930;52.878;6.168;2022-10-14T10:48:24;12.60;99.90
59148;DHT22;44930;52.878;6.168;2022-10-14T10:59:39;12.40;99.90
59148;DHT22;44930;52.878;6.168;2022-10-14T11:05:08;12.30;99.90
59148;DHT22;44930;52.878;6.168;2022-10-14T11:10:42;12.50;99.90
59148;DHT22;44930;52.878;6.168;2022-10-14T11:16:26;12.40;99.90
59148;DHT22;44930;52.878;6.168;2022-10-14T11:19:10;12.80;99.90
59148;DHT22;44930;52.878;6.168;2022-10-14T11:34:51;12.40;99.90
59148;DHT22;44930;52.878;6.168;2022-10-14T11:40:41;12.70;99.90
59148;DHT22;44930;52.878;6.168;2022-10-14T11:43:23;12.90;99.90
59148;DHT22;44930;52.878;6.168;2022-10-14T11:46:05;12.70;99.90
59148;DHT22;44930;52.878;6.168;2022-10-14T11:48:41;12.50;99.90
59148;DHT22;44930;52.878;6.168;2022-10-14T11:51:34;13.10;99.90
59148;DHT22;44930;52.878;6.168;2022-10-14T11:54:08;13.20;99.90
59148;DHT22;44930;52.878;6.168;2022-10-14T11:57:05;13.00;99.90
59148;DHT22;44930;52.878;6.168;2022-10-14T11:59:46;12.90;99.90
59148;DHT22;44930;52.878;6.168;2022-10-14T12:04:40;12.80;99.90
59148;DHT22;44930;52.878;6.168;2022-10-14T12:07:17;12.60;99.90
59148;DHT22;44930;52.878;6.168;2022-10-14T12:09:58;12.90;99.90
59148;DHT22;44930;52.878;6.168;2022-10-14T12:12:26;13.20;99.90
59148;DHT22;44930;52.878;6.168;2022-10-14T12:15:17;13.40;99.90
59148;DHT22;44930;52.878;6.168;2022-10-14T12:17:53;13.10;99.90
59148;DHT22;44930;52.878;6.168;2022-10-14T12:25:31;13.30;99.90
59148;DHT22;44930;52.878;6.168;2022-10-14T12:27:59;13.30;99.90
59148;DHT22;44930;52.878;6.168;2022-10-14T12:30:38;12.90;99.90
59148;DHT22;44930;52.878;6.168;2022-10-14T12:33:09;13.30;99.90
59148;DHT22;44930;52.878;6.168;2022-10-14T12:35:57;13.70;99.90
59148;DHT22;44930;52.878;6.168;2022-10-14T12:38:29;13.20;99.90
59148;DHT22;44930;52.878;6.168;2022-10-14T12:41:31;13.10;99.90
59148;DHT22;44930;52.878;6.168;2022-10-14T12:44:04;13.20;99.90
59148;DHT22;44930;52.878;6.168;2022-10-14T12:49:16;13.50;99.90
59148;DHT22;44930;52.878;6.168;2022-10-14T12:51:52;13.40;99.90
59148;DHT22;44930;52.878;6.168;2022-10-14T12:54:18;13.50;99.90
59148;DHT22;44930;52.878;6.168;2022-10-14T12:56:55;14.00;99.90
59148;DHT22;44930;52.878;6.168;2022-10-14T12:59:41;13.70;99.90
59148;DHT22;44930;52.878;6.168;2022-10-14T13:02:16;14.10;99.90
59148;DHT22;44930;52.878;6.168;2022-10-14T13:04:51;14.10;99.90
59148;DHT22;44930;52.878;6.168;2022-10-14T13:09:44;14.30;99.90
59148;DHT22;44930;52.878;6.168;2022-10-14T13:12:37;13.60;99.90
59148;DHT22;44930;52.878;6.168;2022-10-14T13:19:00;14.30;99.90
59148;DHT22;44930;52.878;6.168;2022-10-14T13:32:37;14.00;99.90
59148;DHT22;44930;52.878;6.168;2022-10-14T13:37:33;14.30;99.90
59148;DHT22;44930;52.878;6.168;2022-10-14T13:42:45;14.10;99.90
59148;DHT22;44930;52.878;6.168;2022-10-14T13:45:13;14.20;99.90
59148;DHT22;44930;52.878;6.168;2022-10-14T13:47:47;14.10;99.90
59148;DHT22;44930;52.878;6.168;2022-10-14T13:50:17;14.50;99.90
59148;DHT22;44930;52.878;6.168;2022-10-14T13:52:55;14.20;99.90
59148;DHT22;44930;52.878;6.168;2022-10-14T13:55:24;14.80;99.90
59148;DHT22;44930;52.878;6.168;2022-10-14T13:58:09;14.10;99.90
59148;DHT22;44930;52.878;6.168;2022-10-14T14:00:37;14.60;99.90
59148;DHT22;44930;52.878;6.168;2022-10-14T14:03:19;13.60;99.90
59148;DHT22;44930;52.878;6.168;2022-10-14T14:05:45;14.50;99.90
59148;DHT22;44930;52.878;6.168;2022-10-14T14:08:17;14.10;99.90
59148;DHT22;44930;52.878;6.168;2022-10-14T14:11:00;14.00;99.90
59148;DHT22;44930;52.878;6.168;2022-10-14T14:13:29;14.30;99.90
59148;DHT22;44930;52.878;6.168;2022-10-14T14:15:55;14.10;99.90
59148;DHT22;44930;52.878;6.168;2022-10-14T14:18:45;14.40;99.90
59148;DHT22;44930;52.878;6.168;2022-10-14T14:21:11;14.00;99.90
59148;DHT22;44930;52.878;6.168;2022-10-14T14:23:51;14.20;99.90
59148;DHT22;44930;52.878;6.168;2022-10-14T14:26:17;14.20;99.90
59148;DHT22;44930;52.878;6.168;2022-10-14T14:28:46;14.20;99.90
59148;DHT22;44930;52.878;6.168;2022-10-14T14:31:16;14.10;99.90
59148;DHT22;44930;52.878;6.168;2022-10-14T14:33:44;14.20;99.90
59148;DHT22;44930;52.878;6.168;2022-10-14T14:36:14;14.10;99.90
59148;DHT22;44930;52.878;6.168;2022-10-14T14:38:51;14.30;99.90
59148;DHT22;44930;52.878;6.168;2022-10-14T14:41:20;14.20;99.90
59148;DHT22;44930;52.878;6.168;2022-10-14T14:43:54;14.30;99.90
59148;DHT22;44930;52.878;6.168;2022-10-14T14:48:56;14.20;99.90
59148;DHT22;44930;52.878;6.168;2022-10-14T14:51:23;14.30;99.90
59148;DHT22;44930;52.878;6.168;2022-10-14T14:53:52;14.30;99.90
59148;DHT22;44930;52.878;6.168;2022-10-14T14:56:25;14.10;99.90
59148;DHT22;44930;52.878;6.168;2022-10-14T14:58:55;14.00;99.90
59148;DHT22;44930;52.878;6.168;2022-10-14T15:01:27;13.90;99.90
59148;DHT22;44930;52.878;6.168;2022-10-14T15:06:23;14.20;99.90
59148;DHT22;44930;52.878;6.168;2022-10-14T15:08:51;14.40;99.90
59148;DHT22;44930;52.878;6.168;2022-10-14T15:11:19;14.20;99.90
59148;DHT22;44930;52.878;6.168;2022-10-14T15:13:50;14.40;99.90
59148;DHT22;44930;52.878;6.168;2022-10-14T15:16:38;14.10;99.90
59148;DHT22;44930;52.878;6.168;2022-10-14T15:19:24;14.30;99.90
59148;DHT22;44930;52.878;6.168;2022-10-14T15:25:03;14.10;99.90
59148;DHT22;44930;52.878;6.168;2022-10-14T15:32:46;14.30;99.90
59148;DHT22;44930;52.878;6.168;2022-10-14T15:35:13;14.30;99.90
59148;DHT22;44930;52.878;6.168;2022-10-14T15:37:39;14.30;99.90
59148;DHT22;44930;52.878;6.168;2022-10-14T15:40:14;14.30;99.90
59148;DHT22;44930;52.878;6.168;2022-10-14T15:42:40;14.30;99.90
59148;DHT22;44930;52.878;6.168;2022-10-14T15:45:06;14.30;99.90
59148;DHT22;44930;52.878;6.168;2022-10-14T15:47:32;14.40;99.90
59148;DHT22;44930;52.878;6.168;2022-10-14T15:49:58;14.30;99.90
59148;DHT22;44930;52.878;6.168;2022-10-14T15:52:24;14.30;99.90
59148;DHT22;44930;52.878;6.168;2022-10-14T15:54:49;14.30;99.90
59148;DHT22;44930;52.878;6.168;2022-10-14T15:57:15;14.30;99.90
59148;DHT22;44930;52.878;6.168;2022-10-14T15:59:41;14.30;99.90
59148;DHT22;44930;52.878;6.168;2022-10-14T16:02:16;14.20;99.90
59148;DHT22;44930;52.878;6.168;2022-10-14T16:07:12;14.20;99.90
59148;DHT22;44930;52.878;6.168;2022-10-14T16:09:38;14.40;99.90
59148;DHT22;44930;52.878;6.168;2022-10-14T16:12:04;14.20;99.90
59148;DHT22;44930;52.878;6.168;2022-10-14T16:14:30;14.20;99.90
59148;DHT22;44930;52.878;6.168;2022-10-14T16:16:55;14.20;99.90
59148;DHT22;44930;52.878;6.168;2022-10-14T16:19:21;14.10;99.90
59148;DHT22;44930;52.878;6.168;2022-10-14T16:21:46;14.20;99.90
59148;DHT22;44930;52.878;6.168;2022-10-14T16:26:45;14.00;99.90
59148;DHT22;44930;52.878;6.168;2022-10-14T16:29:11;14.10;99.90
59148;DHT22;44930;52.878;6.168;2022-10-14T16:31:37;14.10;99.90
59148;DHT22;44930;52.878;6.168;2022-10-14T16:34:03;14.20;99.90
59148;DHT22;44930;52.878;6.168;2022-10-14T16:36:28;14.00;99.90
59148;DHT22;44930;52.878;6.168;2022-10-14T16:38:54;14.20;99.90
59148;DHT22;44930;52.878;6.168;2022-10-14T16:41:20;14.00;99.90
59148;DHT22;44930;52.878;6.168;2022-10-14T16:43:46;14.30;99.90
59148;DHT22;44930;52.878;6.168;2022-10-14T16:46:13;14.10;99.90
59148;DHT22;44930;52.878;6.168;2022-10-14T16:48:38;14.00;99.90
59148;DHT22;44930;52.878;6.168;2022-10-14T16:51:04;14.10;99.90
59148;DHT22;44930;52.878;6.168;2022-10-14T16:53:30;14.10;99.90
59148;DHT22;44930;52.878;6.168;2022-10-14T16:56:08;14.10;99.90
59148;DHT22;44930;52.878;6.168;2022-10-14T16:58:55;14.10;99.90
59148;DHT22;44930;52.878;6.168;2022-10-14T17:01:21;14.00;99.90
59148;DHT22;44930;52.878;6.168;2022-10-14T17:03:47;14.00;99.90
59148;DHT22;44930;52.878;6.168;2022-10-14T17:06:13;14.00;99.90
59148;DHT22;44930;52.878;6.168;2022-10-14T17:08:39;13.90;99.90
59148;DHT22;44930;52.878;6.168;2022-10-14T17:11:09;14.10;99.90
59148;DHT22;44930;52.878;6.168;2022-10-14T17:13:40;14.00;99.90
59148;DHT22;44930;52.878;6.168;2022-10-14T17:16:09;13.90;99.90
59148;DHT22;44930;52.878;6.168;2022-10-14T17:18:35;14.00;99.90
59148;DHT22;44930;52.878;6.168;2022-10-14T17:21:03;14.10;99.90
59148;DHT22;44930;52.878;6.168;2022-10-14T17:23:32;14.00;99.90
59148;DHT22;44930;52.878;6.168;2022-10-14T17:25:58;13.90;99.90
59148;DHT22;44930;52.878;6.168;2022-10-14T17:28:24;13.90;99.90
59148;DHT22;44930;52.878;6.168;2022-10-14T17:30:50;13.90;99.90
59148;DHT22;44930;52.878;6.168;2022-10-14T17:33:16;13.90;99.90
59148;DHT22;44930;52.878;6.168;2022-10-14T17:35:42;14.00;99.90
59148;DHT22;44930;52.878;6.168;2022-10-14T17:38:08;13.80;99.90
59148;DHT22;44930;52.878;6.168;2022-10-14T17:40:34;13.80;99.90
59148;DHT22;44930;52.878;6.168;2022-10-14T17:42:59;13.90;99.90
59148;DHT22;44930;52.878;6.168;2022-10-14T17:45:26;13.80;99.90
59148;DHT22;44930;52.878;6.168;2022-10-14T17:47:55;13.70;99.90
59148;DHT22;44930;52.878;6.168;2022-10-14T17:50:20;13.70;99.90
59148;DHT22;44930;52.878;6.168;2022-10-14T17:52:50;13.70;99.90
59148;DHT22;44930;52.878;6.168;2022-10-14T17:55:16;13.70;99.90
59148;DHT22;44930;52.878;6.168;2022-10-14T18:00:09;13.60;99.90
59148;DHT22;44930;52.878;6.168;2022-10-14T18:05:01;13.60;99.90
59148;DHT22;44930;52.878;6.168;2022-10-14T18:09:52;13.50;99.90
59148;DHT22;44930;52.878;6.168;2022-10-14T18:12:18;13.50;99.90
59148;DHT22;44930;52.878;6.168;2022-10-14T18:14:43;13.50;99.90
59148;DHT22;44930;52.878;6.168;2022-10-14T18:17:10;13.60;99.90
59148;DHT22;44930;52.878;6.168;2022-10-14T18:19:37;13.30;99.90
59148;DHT22;44930;52.878;6.168;2022-10-14T18:22:03;13.50;99.90
59148;DHT22;44930;52.878;6.168;2022-10-14T18:24:30;13.50;99.90
59148;DHT22;44930;52.878;6.168;2022-10-14T18:26:56;13.50;99.90
59148;DHT22;44930;52.878;6.168;2022-10-14T18:29:22;13.50;99.90
59148;DHT22;44930;52.878;6.168;2022-10-14T18:31:48;13.40;99.90
59148;DHT22;44930;52.878;6.168;2022-10-14T18:34:16;13.30;99.90
59148;DHT22;44930;52.878;6.168;2022-10-14T18:36:42;13.30;99.90
59148;DHT22;44930;52.878;6.168;2022-10-14T18:39:09;13.40;99.90
59148;DHT22;44930;52.878;6.168;2022-10-14T18:41:35;13.40;99.90
59148;DHT22;44930;52.878;6.168;2022-10-14T18:44:02;13.40;99.90
59148;DHT22;44930;52.878;6.168;2022-10-14T18:46:29;13.30;99.90
59148;DHT22;44930;52.878;6.168;2022-10-14T18:48:58;13.30;99.90
59148;DHT22;44930;52.878;6.168;2022-10-14T18:51:28;13.20;99.90
59148;DHT22;44930;52.878;6.168;2022-10-14T18:54:00;13.10;99.90
59148;DHT22;44930;52.878;6.168;2022-10-14T18:56:28;13.10;99.90
59148;DHT22;44930;52.878;6.168;2022-10-14T18:59:00;13.20;99.90
59148;DHT22;44930;52.878;6.168;2022-10-14T19:01:26;13.10;99.90
59148;DHT22;44930;52.878;6.168;2022-10-14T19:03:52;13.10;99.90
59148;DHT22;44930;52.878;6.168;2022-10-14T19:06:18;13.20;99.90